Terminal Aerodrome Forecast
Issued by NWS

Home | Current Version | Previous Version | Text Only | Print | Product List | Glossary Off
Versions: 1 2 3 4 5 6 7 8 9 10 11 12

077
FTUS43 KIWX 292016 AAA
TAFSBN
TAF AMD
KSBN 292016Z 2920/3018 08010KT P6SM VCSH OVC020
     FM300000 07014G23KT 5SM SHRA VCTS OVC015CB
     FM300800 10013KT 4SM SHRA OVC008 WS020/15040KT
     FM301300 12011KT 4SM SHRA OVC010=

USA.gov is the U.S. government's official web portal to all federal, state and local government web resources and services.